createdAt,value
2019-02-24T00:00:28.970Z,57.10
2019-02-24T00:02:57.392Z,57.00
2019-02-24T00:05:25.895Z,57.00
2019-02-24T00:07:54.281Z,56.80
2019-02-24T00:10:22.679Z,56.50
2019-02-24T00:12:51.429Z,56.30
2019-02-24T00:15:19.827Z,56.00
2019-02-24T00:17:48.231Z,55.80
2019-02-24T00:20:16.672Z,55.50
2019-02-24T00:22:45.083Z,55.10
2019-02-24T00:25:13.475Z,55.20
2019-02-24T00:27:41.876Z,55.30
2019-02-24T00:30:10.299Z,55.50
2019-02-24T00:32:38.689Z,55.60
2019-02-24T00:35:07.138Z,55.70
2019-02-24T00:37:35.548Z,55.80
2019-02-24T00:40:06.079Z,55.90
2019-02-24T00:42:34.494Z,56.00
2019-02-24T00:45:03.654Z,56.20
2019-02-24T00:47:32.067Z,56.30
2019-02-24T00:50:00.482Z,56.40
2019-02-24T00:52:28.884Z,56.50
2019-02-24T00:54:57.278Z,56.60
2019-02-24T00:57:25.687Z,56.80
2019-02-24T00:59:54.080Z,57.10
2019-02-24T01:02:22.478Z,57.20
2019-02-24T01:04:50.890Z,57.60
2019-02-24T01:07:19.629Z,57.90
2019-02-24T01:09:48.018Z,58.10
2019-02-24T01:12:16.418Z,58.60
2019-02-24T01:14:45.206Z,58.90
2019-02-24T01:17:13.645Z,59.10
2019-02-24T01:19:42.045Z,59.50
2019-02-24T01:22:10.481Z,59.80
2019-02-24T01:24:38.870Z,60.10
2019-02-24T01:27:07.435Z,60.50
2019-02-24T01:29:35.825Z,60.80
2019-02-24T01:32:04.234Z,61.20
2019-02-24T01:34:51.972Z,61.50
2019-02-24T01:37:20.377Z,61.80
2019-02-24T01:39:48.785Z,62.30
2019-02-24T01:42:17.215Z,62.30
2019-02-24T01:44:45.887Z,62.40
2019-02-24T01:47:14.296Z,62.80
2019-02-24T01:49:42.696Z,62.90
2019-02-24T01:52:11.303Z,63.00
2019-02-24T01:54:39.727Z,63.20
2019-02-24T01:57:08.122Z,63.40
2019-02-24T01:59:36.522Z,63.50
2019-02-24T02:02:04.930Z,63.70
2019-02-24T02:04:33.341Z,63.80
2019-02-24T02:07:01.750Z,64.00
2019-02-24T02:09:30.222Z,64.30
2019-02-24T02:11:58.609Z,64.50
2019-02-24T02:14:27.045Z,64.90
2019-02-24T02:16:55.447Z,65.10
2019-02-24T02:19:23.922Z,65.40
2019-02-24T02:21:52.342Z,65.70
2019-02-24T02:24:20.742Z,65.90
2019-02-24T02:26:49.142Z,66.20
2019-02-24T02:29:17.584Z,66.40
2019-02-24T02:31:45.974Z,66.90
2019-02-24T02:34:14.367Z,67.20
2019-02-24T02:36:42.778Z,67.50
2019-02-24T02:39:11.223Z,67.90
2019-02-24T02:41:59.238Z,68.30
2019-02-24T02:44:46.963Z,68.40
2019-02-24T02:47:15.372Z,68.80
2019-02-24T02:49:44.093Z,69.40
2019-02-24T02:52:12.482Z,69.80
2019-02-24T02:54:40.895Z,70.10
2019-02-24T02:57:09.298Z,70.50
2019-02-24T02:59:37.709Z,71.00
2019-02-24T03:02:06.196Z,71.50
2019-02-24T03:04:34.670Z,71.90
2019-02-24T03:07:04.794Z,72.30
2019-02-24T03:09:33.203Z,72.80
2019-02-24T03:12:01.666Z,73.10
2019-02-24T03:14:30.098Z,73.40
2019-02-24T03:16:58.490Z,73.60
2019-02-24T03:19:26.890Z,73.70
2019-02-24T03:21:55.794Z,74.00
2019-02-24T03:24:24.194Z,74.10
2019-02-24T03:26:52.614Z,74.20
2019-02-24T03:29:21.039Z,74.30
2019-02-24T03:31:49.438Z,75.10
2019-02-24T03:34:17.840Z,74.50
2019-02-24T03:36:46.578Z,74.60
2019-02-24T03:39:15.743Z,74.70
2019-02-24T03:41:44.145Z,75.10
2019-02-24T03:44:12.574Z,75.50
2019-02-24T03:46:40.970Z,75.60
2019-02-24T03:49:09.365Z,76.60
2019-02-24T03:51:37.775Z,76.20
2019-02-24T03:54:06.242Z,76.30
2019-02-24T03:56:34.734Z,76.40
2019-02-24T03:59:03.134Z,76.40
2019-02-24T04:01:31.602Z,76.60
2019-02-24T04:04:00.015Z,76.90
2019-02-24T04:06:28.435Z,77.00
2019-02-24T04:08:56.827Z,77.20
2019-02-24T04:11:25.222Z,77.30
2019-02-24T04:13:53.633Z,77.50
2019-02-24T04:16:22.030Z,77.50
2019-02-24T04:18:50.464Z,77.60
2019-02-24T04:21:18.871Z,77.10
2019-02-24T04:23:47.290Z,78.00
2019-02-24T04:26:15.778Z,78.30
2019-02-24T04:28:44.198Z,79.00
2019-02-24T04:31:12.590Z,79.50
2019-02-24T04:33:40.982Z,80.00
2019-02-24T04:36:09.392Z,80.50
2019-02-24T04:38:37.791Z,81.00
2019-02-24T04:41:06.211Z,81.70
2019-02-24T04:43:34.601Z,82.30
2019-02-24T04:46:03.117Z,82.90
2019-02-24T04:48:31.531Z,83.50
2019-02-24T04:50:59.952Z,84.10
2019-02-24T04:53:28.357Z,84.70
2019-02-24T04:55:56.777Z,85.40
2019-02-24T04:58:25.181Z,85.90
2019-02-24T05:00:53.591Z,86.50
2019-02-24T05:03:22.010Z,87.30
2019-02-24T05:05:50.414Z,87.80
2019-02-24T05:08:18.856Z,88.40
2019-02-24T05:10:47.241Z,89.50
2019-02-24T05:13:15.632Z,89.10
2019-02-24T05:15:44.042Z,89.50
2019-02-24T05:18:12.446Z,89.90
2019-02-24T05:20:40.845Z,90.10
2019-02-24T05:23:09.252Z,90.20
2019-02-24T05:25:37.641Z,90.30
2019-02-24T05:28:06.050Z,90.50
2019-02-24T05:30:34.443Z,90.70
2019-02-24T05:33:02.853Z,90.80
2019-02-24T05:35:31.250Z,90.90
2019-02-24T05:37:59.634Z,91.00
2019-02-24T05:40:28.058Z,91.10
2019-02-24T05:42:56.542Z,91.30
2019-02-24T05:45:24.955Z,91.40
2019-02-24T05:47:53.350Z,91.50
2019-02-24T05:50:21.750Z,91.80
2019-02-24T05:52:50.157Z,91.90
2019-02-24T05:55:18.565Z,92.10
2019-02-24T05:57:46.954Z,92.20
2019-02-24T06:00:15.368Z,92.30
2019-02-24T06:02:43.764Z,92.40
2019-02-24T06:05:12.155Z,92.50
2019-02-24T06:07:40.569Z,92.60
2019-02-24T06:10:08.968Z,92.70
2019-02-24T06:12:37.381Z,92.90
2019-02-24T06:15:06.812Z,92.90
2019-02-24T06:17:35.219Z,93.10
2019-02-24T06:20:03.686Z,93.20
2019-02-24T06:22:32.082Z,93.30
2019-02-24T06:25:00.489Z,93.40
2019-02-24T06:27:28.886Z,93.50
2019-02-24T06:30:04.593Z,93.50
2019-02-24T06:32:27.578Z,93.50
2019-02-24T06:34:56.058Z,93.70
2019-02-24T06:37:24.474Z,93.70
2019-02-24T06:39:52.873Z,93.70
2019-02-24T06:42:21.273Z,93.80
2019-02-24T06:44:49.675Z,93.90
2019-02-24T06:47:18.097Z,94.00
2019-02-24T06:49:46.487Z,94.10
2019-02-24T06:52:14.891Z,94.10
2019-02-24T06:54:43.614Z,94.60
2019-02-24T06:57:12.014Z,94.30
2019-02-24T06:59:40.410Z,94.40
2019-02-24T07:02:08.827Z,94.40
2019-02-24T07:04:37.222Z,94.50
2019-02-24T07:07:05.636Z,94.60
2019-02-24T07:09:34.025Z,94.50
2019-02-24T07:12:02.421Z,94.60
2019-02-24T07:14:30.835Z,94.70
2019-02-24T07:16:59.231Z,94.70
2019-02-24T07:19:27.694Z,94.60
2019-02-24T07:21:56.204Z,94.70
2019-02-24T07:24:24.598Z,94.50
2019-02-24T07:26:53.323Z,94.30
2019-02-24T07:29:21.844Z,94.20
2019-02-24T07:31:50.242Z,94.20
2019-02-24T07:34:18.655Z,94.10
2019-02-24T07:36:47.046Z,94.00
2019-02-24T07:39:15.449Z,93.80
2019-02-24T07:41:43.876Z,93.80
2019-02-24T07:44:12.253Z,93.60
2019-02-24T07:46:40.678Z,93.60
2019-02-24T07:49:09.076Z,93.60
2019-02-24T07:51:37.466Z,93.50
2019-02-24T07:54:05.870Z,93.30
2019-02-24T07:56:34.514Z,93.00
2019-02-24T07:59:02.906Z,92.50
2019-02-24T08:01:31.306Z,92.00
2019-02-24T08:03:59.710Z,91.40
2019-02-24T08:06:28.125Z,90.60
2019-02-24T08:08:56.514Z,89.80
2019-02-24T08:11:24.966Z,87.80
2019-02-24T08:13:53.455Z,86.10
2019-02-24T08:16:21.846Z,84.20
2019-02-24T08:18:51.976Z,82.40
2019-02-24T08:21:20.542Z,81.20
2019-02-24T08:23:48.934Z,80.10
2019-02-24T08:26:17.405Z,79.00
2019-02-24T08:28:45.890Z,77.90
2019-02-24T08:31:14.296Z,77.00
2019-02-24T08:33:42.697Z,76.90
2019-02-24T08:36:11.106Z,75.20
2019-02-24T08:38:40.477Z,74.40
2019-02-24T08:41:08.980Z,73.70
2019-02-24T08:43:37.381Z,72.20
2019-02-24T08:46:05.774Z,71.50
2019-02-24T08:48:34.182Z,70.00
2019-02-24T08:51:02.566Z,68.40
2019-02-24T08:53:30.966Z,67.00
2019-02-24T08:55:59.359Z,65.20
2019-02-24T08:58:27.866Z,64.00
2019-02-24T09:00:56.335Z,63.00
2019-02-24T09:03:25.010Z,62.00
2019-02-24T09:05:53.525Z,60.60
2019-02-24T09:08:22.001Z,59.80
2019-02-24T09:10:50.453Z,59.20
2019-02-24T09:13:18.858Z,59.20
2019-02-24T09:15:47.255Z,58.90
2019-02-24T09:18:15.679Z,58.20
2019-02-24T09:20:44.083Z,58.00
2019-02-24T09:23:12.470Z,57.40
2019-02-24T09:25:40.875Z,56.80
2019-02-24T09:28:09.273Z,56.20
2019-02-24T09:30:37.667Z,55.00
2019-02-24T09:33:06.074Z,54.90
2019-02-24T09:35:34.466Z,54.80
2019-02-24T09:38:02.870Z,54.50
2019-02-24T09:40:31.278Z,54.10
2019-02-24T09:42:59.685Z,53.80
2019-02-24T09:45:28.099Z,53.00
2019-02-24T09:47:56.585Z,52.70
2019-02-24T09:50:25.076Z,52.30
2019-02-24T09:52:53.453Z,51.40
2019-02-24T09:55:21.839Z,51.30
2019-02-24T09:57:50.269Z,51.30
2019-02-24T10:00:18.743Z,50.60
2019-02-24T10:02:47.251Z,50.10
2019-02-24T10:05:15.637Z,49.80
2019-02-24T10:07:44.026Z,49.50
2019-02-24T10:10:13.421Z,49.20
2019-02-24T10:12:41.882Z,48.90
2019-02-24T10:15:13.346Z,48.70
2019-02-24T10:18:01.090Z,48.00
2019-02-24T10:20:29.518Z,47.30
2019-02-24T10:22:57.923Z,47.40
2019-02-24T10:25:26.297Z,47.10
2019-02-24T10:27:54.759Z,46.70
2019-02-24T10:30:23.235Z,46.60
2019-02-24T10:32:51.701Z,45.80
2019-02-24T10:35:20.335Z,45.50
2019-02-24T10:37:48.730Z,45.00
2019-02-24T10:40:17.470Z,44.80
2019-02-24T10:42:45.874Z,44.40
2019-02-24T10:45:17.356Z,44.50
2019-02-24T10:47:45.748Z,43.90
2019-02-24T10:50:15.545Z,43.60
2019-02-24T10:52:43.931Z,43.30
2019-02-24T10:55:12.926Z,43.20
2019-02-24T10:57:41.814Z,42.50
2019-02-24T11:00:15.086Z,42.60
2019-02-24T11:02:43.511Z,41.90
2019-02-24T11:05:11.992Z,41.60
2019-02-24T11:07:40.385Z,40.60
2019-02-24T11:10:09.706Z,40.60
2019-02-24T11:12:38.118Z,40.30
2019-02-24T11:15:11.028Z,39.80
2019-02-24T11:17:39.436Z,39.60
2019-02-24T11:20:18.847Z,39.70
2019-02-24T11:22:47.234Z,39.70
2019-02-24T11:25:15.688Z,39.50
2019-02-24T11:27:44.410Z,38.60
2019-02-24T11:30:14.382Z,38.30
2019-02-24T11:32:42.882Z,38.20
2019-02-24T11:35:12.238Z,38.30
2019-02-24T11:37:40.719Z,38.30
2019-02-24T11:40:11.730Z,38.40
2019-02-24T11:42:40.155Z,38.80
2019-02-24T11:45:10.230Z,39.20
2019-02-24T11:47:38.683Z,38.70
2019-02-24T11:50:13.437Z,38.50
2019-02-24T11:52:41.868Z,38.60
2019-02-24T11:55:10.798Z,38.10
2019-02-24T11:57:39.354Z,38.20
2019-02-24T12:00:12.693Z,38.40
2019-02-24T12:02:41.836Z,38.50
2019-02-24T12:05:10.917Z,38.60
2019-02-24T12:07:39.500Z,38.70
2019-02-24T12:10:12.466Z,38.70
2019-02-24T12:12:40.882Z,38.30
2019-02-24T12:15:14.306Z,38.00
2019-02-24T12:17:42.766Z,37.90
2019-02-24T12:20:12.210Z,37.90
2019-02-24T12:22:40.603Z,37.90
2019-02-24T12:25:10.378Z,37.50
2019-02-24T12:27:38.775Z,37.30
2019-02-24T12:30:12.403Z,37.50
2019-02-24T12:32:40.882Z,36.70
2019-02-24T12:35:09.407Z,36.50
2019-02-24T12:37:37.818Z,36.70
2019-02-24T12:40:12.258Z,36.80
2019-02-24T12:42:40.686Z,36.40
2019-02-24T12:45:10.136Z,35.80
2019-02-24T12:47:38.535Z,36.00
2019-02-24T12:50:12.115Z,35.40
2019-02-24T12:52:40.510Z,35.10
2019-02-24T12:55:09.558Z,35.00
2019-02-24T12:57:38.632Z,35.10
2019-02-24T13:00:16.925Z,35.50
2019-02-24T13:02:45.426Z,35.60
2019-02-24T13:05:13.986Z,35.40
2019-02-24T13:07:42.398Z,34.90
2019-02-24T13:10:16.204Z,34.50
2019-02-24T13:12:44.674Z,34.20
2019-02-24T13:15:13.090Z,34.40
2019-02-24T13:17:41.752Z,34.50
2019-02-24T13:20:11.637Z,34.30
2019-02-24T13:22:40.434Z,34.30
2019-02-24T13:25:10.966Z,34.30
2019-02-24T13:27:39.579Z,34.50
2019-02-24T13:30:12.554Z,34.40
2019-02-24T13:32:40.941Z,34.70
2019-02-24T13:35:09.794Z,34.70
2019-02-24T13:37:38.194Z,34.80
2019-02-24T13:40:09.895Z,35.00
2019-02-24T13:42:38.300Z,35.10
2019-02-24T13:45:17.515Z,35.00
2019-02-24T13:47:45.926Z,35.00
2019-02-24T13:50:15.470Z,35.20
2019-02-24T13:52:43.874Z,35.30
2019-02-24T13:55:14.687Z,35.30
2019-02-24T13:57:43.076Z,35.30
2019-02-24T14:00:17.282Z,35.30
2019-02-24T14:02:45.693Z,35.30
2019-02-24T14:05:14.091Z,35.30
2019-02-24T14:07:42.482Z,35.30
2019-02-24T14:10:12.578Z,35.20
2019-02-24T14:12:40.978Z,35.30
2019-02-24T14:15:12.174Z,35.00
2019-02-24T14:17:40.565Z,35.20
2019-02-24T14:20:13.808Z,35.30
2019-02-24T14:22:42.227Z,35.10
2019-02-24T14:25:11.915Z,35.10
2019-02-24T14:27:40.310Z,35.00
2019-02-24T14:30:16.599Z,35.00
2019-02-24T14:32:45.363Z,34.80
2019-02-24T14:35:16.378Z,34.70
2019-02-24T14:37:44.742Z,34.60
2019-02-24T14:40:13.222Z,34.70
2019-02-24T14:42:41.620Z,34.70
2019-02-24T14:45:23.380Z,34.40
2019-02-24T14:47:51.774Z,34.40
2019-02-24T14:50:20.342Z,34.40
2019-02-24T14:52:48.776Z,35.00
2019-02-24T14:55:17.179Z,34.20
2019-02-24T14:57:45.588Z,34.10
2019-02-24T15:00:24.078Z,34.30
2019-02-24T15:02:52.550Z,34.40
2019-02-24T15:05:20.961Z,34.00
2019-02-24T15:07:49.374Z,34.00
2019-02-24T15:10:24.505Z,34.10
2019-02-24T15:12:52.914Z,34.10
2019-02-24T15:15:33.075Z,34.20
2019-02-24T15:17:56.917Z,34.10
2019-02-24T15:20:25.447Z,33.90
2019-02-24T15:22:53.861Z,33.90
2019-02-24T15:25:22.282Z,33.90
2019-02-24T15:27:50.678Z,33.90
2019-02-24T15:30:30.966Z,34.10
2019-02-24T15:32:59.385Z,34.30
2019-02-24T15:35:27.835Z,35.10
2019-02-24T15:37:56.343Z,34.60
2019-02-24T15:40:24.751Z,34.80
2019-02-24T15:42:53.185Z,34.80
2019-02-24T15:45:21.627Z,34.50
2019-02-24T15:47:50.039Z,34.40
2019-02-24T15:50:18.436Z,34.40
2019-02-24T15:52:47.006Z,34.60
2019-02-24T15:55:16.453Z,34.60
2019-02-24T15:57:44.846Z,34.90
2019-02-24T16:00:18.298Z,35.00
2019-02-24T16:02:46.999Z,35.10
2019-02-24T16:05:15.454Z,35.30
2019-02-24T16:07:43.850Z,35.40
2019-02-24T16:10:17.305Z,35.60
2019-02-24T16:12:45.878Z,35.70
2019-02-24T16:15:25.530Z,35.80
2019-02-24T16:17:54.022Z,35.90
2019-02-24T16:20:28.430Z,35.90
2019-02-24T16:22:56.840Z,36.20
2019-02-24T16:25:25.234Z,36.20
2019-02-24T16:27:54.290Z,36.30
2019-02-24T16:30:22.744Z,36.50
2019-02-24T16:32:51.219Z,36.50
2019-02-24T16:35:19.674Z,36.50
2019-02-24T16:37:48.384Z,36.60
2019-02-24T16:40:21.811Z,36.80
2019-02-24T16:42:50.200Z,37.00
2019-02-24T16:45:18.942Z,37.00
2019-02-24T16:47:47.366Z,37.20
2019-02-24T16:50:23.144Z,37.40
2019-02-24T16:52:51.642Z,37.60
2019-02-24T16:55:20.151Z,37.90
2019-02-24T16:57:48.967Z,38.10
2019-02-24T17:00:21.624Z,38.50
2019-02-24T17:02:50.232Z,38.80
2019-02-24T17:05:18.762Z,39.00
2019-02-24T17:07:49.122Z,39.30
2019-02-24T17:10:22.542Z,39.50
2019-02-24T17:12:50.948Z,40.40
2019-02-24T17:15:19.403Z,41.10
2019-02-24T17:17:47.808Z,41.90
2019-02-24T17:20:32.178Z,42.50
2019-02-24T17:23:00.583Z,43.40
2019-02-24T17:25:29.002Z,44.30
2019-02-24T17:27:57.458Z,45.00
2019-02-24T17:30:25.862Z,45.60
2019-02-24T17:32:54.278Z,46.30
2019-02-24T17:35:22.763Z,47.10
2019-02-24T17:38:10.507Z,47.20
2019-02-24T17:40:38.906Z,47.90
2019-02-24T17:43:07.314Z,48.50
2019-02-24T17:45:35.714Z,48.90
2019-02-24T17:48:04.102Z,49.30
2019-02-24T17:50:32.681Z,49.70
2019-02-24T17:53:01.076Z,50.00
2019-02-24T17:55:29.534Z,50.40
2019-02-24T17:57:58.090Z,51.00
2019-02-24T18:00:32.094Z,51.30
2019-02-24T18:03:00.718Z,51.40
2019-02-24T18:05:29.386Z,51.40
2019-02-24T18:07:57.783Z,51.40
2019-02-24T18:10:26.261Z,51.50
2019-02-24T18:12:54.875Z,51.60
2019-02-24T18:15:23.258Z,51.80
2019-02-24T18:17:51.638Z,51.80
2019-02-24T18:20:21.518Z,52.00
2019-02-24T18:22:49.911Z,52.20
2019-02-24T18:25:18.412Z,52.30
2019-02-24T18:27:46.886Z,52.40
2019-02-24T18:30:28.642Z,52.50
2019-02-24T18:32:57.090Z,52.90
2019-02-24T18:35:25.497Z,53.00
2019-02-24T18:37:53.878Z,53.10
2019-02-24T18:40:22.305Z,53.20
2019-02-24T18:42:59.293Z,53.30
2019-02-24T18:45:21.768Z,53.30
2019-02-24T18:47:50.159Z,53.40
2019-02-24T18:50:20.162Z,53.50
2019-02-24T18:52:48.745Z,53.80
2019-02-24T18:55:17.370Z,54.10
2019-02-24T18:57:45.762Z,54.50
2019-02-24T19:00:21.480Z,55.00
2019-02-24T19:02:49.885Z,55.60
2019-02-24T19:05:18.369Z,56.00
2019-02-24T19:07:46.775Z,56.10
2019-02-24T19:10:17.482Z,56.60
2019-02-24T19:12:45.894Z,56.80
2019-02-24T19:15:18.979Z,56.90
2019-02-24T19:17:47.823Z,56.80
2019-02-24T19:20:18.367Z,56.60
2019-02-24T19:22:46.752Z,56.70
2019-02-24T19:25:15.174Z,57.00
2019-02-24T19:27:43.707Z,57.00
2019-02-24T19:30:14.827Z,57.10
2019-02-24T19:32:43.229Z,57.30
2019-02-24T19:35:13.266Z,57.70
2019-02-24T19:37:41.689Z,58.10
2019-02-24T19:40:16.236Z,58.40
2019-02-24T19:42:44.693Z,58.50
2019-02-24T19:45:16.102Z,58.50
2019-02-24T19:47:44.588Z,58.60
2019-02-24T19:50:16.992Z,58.70
2019-02-24T19:52:45.647Z,58.90
2019-02-24T19:55:15.002Z,58.90
2019-02-24T19:57:43.384Z,58.80
2019-02-24T20:00:22.995Z,59.20
2019-02-24T20:02:51.461Z,59.40
2019-02-24T20:05:20.786Z,59.40
2019-02-24T20:07:49.189Z,59.20
2019-02-24T20:10:26.687Z,59.00
2019-02-24T20:12:55.438Z,58.70
2019-02-24T20:15:23.842Z,58.40
2019-02-24T20:17:52.536Z,58.50
2019-02-24T20:20:21.198Z,57.70
2019-02-24T20:22:49.662Z,57.60
2019-02-24T20:25:20.477Z,57.40
2019-02-24T20:27:48.894Z,57.20
2019-02-24T20:30:25.474Z,57.10
2019-02-24T20:32:54.106Z,57.20
2019-02-24T20:35:22.590Z,57.30
2019-02-24T20:37:51.003Z,57.70
2019-02-24T20:40:19.444Z,57.90
2019-02-24T20:42:47.834Z,58.20
2019-02-24T20:45:21.087Z,58.30
2019-02-24T20:47:49.900Z,58.60
2019-02-24T20:50:20.330Z,58.70
2019-02-24T20:52:48.971Z,58.90
2019-02-24T20:55:17.417Z,59.00
2019-02-24T20:57:45.807Z,59.00
2019-02-24T21:00:19.670Z,59.10
2019-02-24T21:02:48.063Z,59.20
2019-02-24T21:05:16.783Z,59.30
2019-02-24T21:07:45.214Z,59.40
2019-02-24T21:10:13.746Z,59.70
2019-02-24T21:12:42.251Z,60.20
2019-02-24T21:15:13.290Z,60.70
2019-02-24T21:17:41.693Z,61.50
2019-02-24T21:20:15.627Z,62.30
2019-02-24T21:22:44.020Z,63.00
2019-02-24T21:25:12.466Z,63.70
2019-02-24T21:27:40.864Z,64.30
2019-02-24T21:30:17.062Z,64.90
2019-02-24T21:32:45.445Z,65.30
2019-02-24T21:35:34.946Z,66.00
2019-02-24T21:38:03.338Z,66.50
2019-02-24T21:40:31.737Z,66.90
2019-02-24T21:43:00.143Z,67.00
2019-02-24T21:45:30.166Z,67.00
2019-02-24T21:47:58.586Z,67.00
2019-02-24T21:50:26.979Z,67.20
2019-02-24T21:52:55.388Z,67.30
2019-02-24T21:55:24.083Z,67.40
2019-02-24T21:57:52.486Z,67.60
2019-02-24T22:00:23.596Z,68.00
2019-02-24T22:02:52.126Z,68.30
2019-02-24T22:05:20.586Z,68.50
2019-02-24T22:07:48.982Z,68.60
2019-02-24T22:10:17.578Z,68.60
2019-02-24T22:12:45.970Z,69.00
2019-02-24T22:15:17.445Z,69.60
2019-02-24T22:17:45.859Z,70.40
2019-02-24T22:20:15.370Z,71.20
2019-02-24T22:22:44.258Z,71.80
2019-02-24T22:25:16.262Z,72.50
2019-02-24T22:27:45.638Z,73.30
2019-02-24T22:30:22.373Z,73.80
2019-02-24T22:32:50.843Z,74.40
2019-02-24T22:35:19.238Z,75.70
2019-02-24T22:37:47.790Z,75.80
2019-02-24T22:40:17.169Z,76.70
2019-02-24T22:42:46.145Z,77.30
2019-02-24T22:45:18.964Z,78.20
2019-02-24T22:47:47.357Z,79.00
2019-02-24T22:50:16.490Z,79.80
2019-02-24T22:52:45.912Z,80.60
2019-02-24T22:55:18.568Z,81.10
2019-02-24T22:57:46.958Z,81.40
2019-02-24T23:00:53.290Z,81.60
2019-02-24T23:03:23.739Z,81.80
2019-02-24T23:05:52.126Z,81.60
2019-02-24T23:08:20.714Z,81.60
2019-02-24T23:10:49.254Z,81.70
2019-02-24T23:13:17.646Z,81.60
2019-02-24T23:15:46.058Z,82.30
2019-02-24T23:18:14.454Z,82.70
2019-02-24T23:20:43.033Z,82.90
2019-02-24T23:23:11.431Z,83.30
2019-02-24T23:25:39.833Z,83.70
2019-02-24T23:28:08.262Z,84.30
2019-02-24T23:30:36.650Z,84.80
2019-02-24T23:33:05.143Z,85.30
2019-02-24T23:35:33.907Z,86.00
2019-02-24T23:38:02.322Z,86.70
2019-02-24T23:40:30.715Z,87.40
2019-02-24T23:42:59.122Z,87.30
2019-02-24T23:45:27.611Z,87.30
2019-02-24T23:47:56.001Z,87.30
2019-02-24T23:50:24.876Z,87.30
2019-02-24T23:52:53.769Z,87.70
2019-02-24T23:55:22.145Z,88.10
2019-02-24T23:57:50.550Z,88.50
